createdAt,value
2023-04-15T00:00:13.797Z,97356.34
2023-04-15T00:01:19.260Z,97361.59
2023-04-15T00:02:21.243Z,97355.19
2023-04-15T00:03:23.758Z,97352.56
2023-04-15T00:04:25.837Z,97355.94
2023-04-15T00:05:27.527Z,97355.13
2023-04-15T00:06:29.018Z,97351.75
2023-04-15T00:07:30.469Z,97357.06
2023-04-15T00:08:32.120Z,97353.69
2023-04-15T00:09:33.821Z,97351.75
2023-04-15T00:10:35.280Z,97349.13
2023-04-15T00:11:36.725Z,97350.63
2023-04-15T00:12:38.199Z,97348.38
2023-04-15T00:13:40.065Z,97347.59
2023-04-15T00:14:41.639Z,97349.44
2023-04-15T00:15:43.402Z,97352.13
2023-04-15T00:16:45.046Z,97349.88
2023-04-15T00:17:47.086Z,97353.94
2023-04-15T00:18:48.937Z,97346.50
2023-04-15T00:19:50.386Z,97346.50
2023-04-15T00:20:52.578Z,97351.75
2023-04-15T00:21:54.107Z,97345.00
2023-04-15T00:22:55.601Z,97349.16
2023-04-15T00:23:57.711Z,97349.53
2023-04-15T00:24:59.258Z,97349.16
2023-04-15T00:26:00.741Z,97349.94
2023-04-15T00:27:02.245Z,97349.16
2023-04-15T00:28:04.116Z,97345.09
2023-04-15T00:29:06.413Z,97342.41
2023-04-15T00:30:08.304Z,97343.53
2023-04-15T00:31:09.991Z,97347.66
2023-04-15T00:32:11.488Z,97339.78
2023-04-15T00:33:14.099Z,97348.38
2023-04-15T00:34:15.725Z,97337.88
2023-04-15T00:35:17.440Z,97341.25
2023-04-15T00:36:19.477Z,97339.41
2023-04-15T00:37:21.243Z,97333.41
2023-04-15T00:38:22.789Z,97337.97
2023-04-15T00:39:24.859Z,97331.53
2023-04-15T00:40:26.482Z,97340.19
2023-04-15T00:41:28.072Z,97326.25
2023-04-15T00:42:29.813Z,97330.00
2023-04-15T00:43:31.365Z,97327.38
2023-04-15T00:44:33.544Z,97325.78
2023-04-15T00:45:35.107Z,97328.72
2023-04-15T00:46:38.475Z,97327.16
2023-04-15T00:47:42.411Z,97328.34
2023-04-15T00:48:44.233Z,97323.84
2023-04-15T00:49:45.714Z,97328.28
2023-04-15T00:50:47.266Z,97331.66
2023-04-15T00:51:49.308Z,97328.25
2023-04-15T00:52:50.767Z,97332.03
2023-04-15T00:53:52.378Z,97331.72
2023-04-15T00:54:53.865Z,97333.22
2023-04-15T00:55:56.136Z,97330.56
2023-04-15T00:56:58.029Z,97332.09
2023-04-15T00:57:59.613Z,97326.47
2023-04-15T00:59:02.325Z,97326.09
2023-04-15T01:00:08.020Z,97324.53
2023-04-15T01:01:10.217Z,97331.66
2023-04-15T01:02:12.086Z,97329.09
2023-04-15T01:03:14.395Z,97320.84
2023-04-15T01:04:16.460Z,97314.88
2023-04-15T01:05:18.643Z,97313.44
2023-04-15T01:06:20.116Z,97309.28
2023-04-15T01:07:21.579Z,97306.31
2023-04-15T01:08:23.071Z,97314.19
2023-04-15T01:09:24.752Z,97310.81
2023-04-15T01:10:26.344Z,97314.94
2023-04-15T01:11:28.180Z,97318.25
2023-04-15T01:12:32.159Z,97317.50
2023-04-15T01:13:34.508Z,97322.38
2023-04-15T01:14:36.206Z,97320.84
2023-04-15T01:15:37.796Z,97326.16
2023-04-15T01:16:39.909Z,97320.56
2023-04-15T01:17:42.055Z,97320.97
2023-04-15T01:18:43.950Z,97313.47
2023-04-15T01:19:45.783Z,97316.53
2023-04-15T01:20:47.297Z,97319.50
2023-04-15T01:21:48.855Z,97318.75
2023-04-15T01:22:51.367Z,97317.59
2023-04-15T01:23:55.408Z,97319.09
2023-04-15T01:25:20.195Z,97312.69
2023-04-15T01:26:22.255Z,97312.31
2023-04-15T01:27:24.303Z,97306.66
2023-04-15T01:28:26.158Z,97304.44
2023-04-15T01:29:28.003Z,97302.94
2023-04-15T01:30:30.006Z,97303.31
2023-04-15T01:31:31.971Z,97305.56
2023-04-15T01:32:33.606Z,97304.81
2023-04-15T01:33:35.178Z,97307.81
2023-04-15T01:34:37.052Z,97299.97
2023-04-15T01:35:38.931Z,97303.34
2023-04-15T01:36:40.444Z,97305.59
2023-04-15T01:37:42.205Z,97310.50
2023-04-15T01:38:43.730Z,97301.47
2023-04-15T01:39:45.483Z,97305.59
2023-04-15T01:40:46.932Z,97303.41
2023-04-15T01:41:48.696Z,97306.41
2023-04-15T01:42:50.178Z,97303.03
2023-04-15T01:43:52.590Z,97303.78
2023-04-15T01:44:54.135Z,97299.59
2023-04-15T01:45:56.590Z,97300.00
2023-04-15T01:46:58.700Z,97305.66
2023-04-15T01:48:00.310Z,97301.06
2023-04-15T01:49:02.373Z,97299.59
2023-04-15T01:50:04.355Z,97298.09
2023-04-15T01:51:05.922Z,97296.97
2023-04-15T01:52:07.957Z,97297.03
2023-04-15T01:53:09.717Z,97295.53
2023-04-15T01:54:11.240Z,97297.03
2023-04-15T01:55:13.370Z,97300.81
2023-04-15T01:56:16.517Z,97291.44
2023-04-15T01:57:18.331Z,97295.94
2023-04-15T01:58:20.035Z,97291.03
2023-04-15T01:59:21.670Z,97289.56
2023-04-15T02:00:23.127Z,97288.44
2023-04-15T02:01:25.030Z,97289.16
2023-04-15T02:02:26.757Z,97297.44
2023-04-15T02:03:29.775Z,97290.31
2023-04-15T02:04:31.724Z,97297.06
2023-04-15T02:05:33.798Z,97295.19
2023-04-15T02:06:36.408Z,97285.81
2023-04-15T02:07:37.984Z,97283.94
2023-04-15T02:08:39.442Z,97288.44
2023-04-15T02:09:40.940Z,97280.56
2023-04-15T02:10:42.788Z,97281.31
2023-04-15T02:11:44.877Z,97291.44
2023-04-15T02:12:46.571Z,97278.66
2023-04-15T02:13:47.972Z,97279.00
2023-04-15T02:14:49.418Z,97276.38
2023-04-15T02:15:52.519Z,97277.94
2023-04-15T02:16:53.991Z,97275.31
2023-04-15T02:17:55.679Z,97275.63
2023-04-15T02:18:57.383Z,97279.44
2023-04-15T02:19:59.339Z,97284.22
2023-04-15T02:21:01.163Z,97281.97
2023-04-15T02:22:02.746Z,97284.94
2023-04-15T02:23:07.385Z,97287.91
2023-04-15T02:24:09.053Z,97286.81
2023-04-15T02:25:11.705Z,97287.94
2023-04-15T02:26:13.248Z,97285.25
2023-04-15T02:27:18.397Z,97286.06
2023-04-15T02:28:19.872Z,97287.94
2023-04-15T02:29:21.466Z,97286.47
2023-04-15T02:30:23.979Z,97287.63
2023-04-15T02:31:26.078Z,97289.47
2023-04-15T02:32:28.984Z,97285.75
2023-04-15T02:33:32.352Z,97282.75
2023-04-15T02:34:33.990Z,97292.91
2023-04-15T02:35:36.517Z,97293.63
2023-04-15T02:36:39.255Z,97289.13
2023-04-15T02:37:43.527Z,97285.00
2023-04-15T02:38:45.388Z,97291.31
2023-04-15T02:39:47.124Z,97292.44
2023-04-15T02:40:50.645Z,97290.22
2023-04-15T02:41:52.578Z,97284.22
2023-04-15T02:42:54.052Z,97291.34
2023-04-15T02:43:55.828Z,97284.94
2023-04-15T02:44:58.374Z,97294.72
2023-04-15T02:45:59.928Z,97290.22
2023-04-15T02:47:01.525Z,97285.00
2023-04-15T02:48:06.331Z,97291.00
2023-04-15T02:49:08.645Z,97290.59
2023-04-15T02:50:12.781Z,97290.22
2023-04-15T02:51:16.145Z,97288.69
2023-04-15T02:52:17.647Z,97293.97
2023-04-15T02:53:19.997Z,97288.69
2023-04-15T02:54:26.137Z,97292.06
2023-04-15T02:55:27.875Z,97293.88
2023-04-15T02:56:30.260Z,97293.88
2023-04-15T02:57:31.827Z,97285.63
2023-04-15T02:58:34.848Z,97295.44
2023-04-15T02:59:36.378Z,97292.41
2023-04-15T03:00:37.955Z,97292.06
2023-04-15T03:01:39.528Z,97298.84
2023-04-15T03:02:42.351Z,97293.97
2023-04-15T03:03:44.063Z,97293.63
2023-04-15T03:04:46.106Z,97294.72
2023-04-15T03:05:47.994Z,97294.72
2023-04-15T03:06:49.579Z,97291.72
2023-04-15T03:07:54.215Z,97298.88
2023-04-15T03:08:57.058Z,97295.50
2023-04-15T03:09:58.502Z,97288.38
2023-04-15T03:11:01.257Z,97290.25
2023-04-15T03:12:03.059Z,97294.03
2023-04-15T03:13:04.547Z,97296.66
2023-04-15T03:14:06.209Z,97297.34
2023-04-15T03:15:09.001Z,97295.50
2023-04-15T03:16:10.967Z,97287.25
2023-04-15T03:17:12.572Z,97297.03
2023-04-15T03:18:14.211Z,97291.44
2023-04-15T03:19:15.673Z,97286.56
2023-04-15T03:20:17.356Z,97282.06
2023-04-15T03:21:20.398Z,97286.94
2023-04-15T03:22:21.760Z,97288.41
2023-04-15T03:23:23.234Z,97290.59
2023-04-15T03:24:24.943Z,97287.97
2023-04-15T03:25:26.417Z,97283.53
2023-04-15T03:26:31.676Z,97283.53
2023-04-15T03:27:33.218Z,97286.94
2023-04-15T03:28:34.737Z,97282.81
2023-04-15T03:29:36.319Z,97288.81
2023-04-15T03:30:37.839Z,97292.91
2023-04-15T03:31:39.384Z,97289.16
2023-04-15T03:32:40.887Z,97289.16
2023-04-15T03:33:42.456Z,97283.91
2023-04-15T03:34:44.247Z,97289.47
2023-04-15T03:35:46.277Z,97286.50
2023-04-15T03:36:47.846Z,97288.00
2023-04-15T03:37:49.366Z,97290.59
2023-04-15T03:38:51.067Z,97287.25
2023-04-15T03:39:52.880Z,97279.75
2023-04-15T03:40:54.398Z,97282.81
2023-04-15T03:41:56.471Z,97282.41
2023-04-15T03:42:58.022Z,97279.78
2023-04-15T03:43:59.754Z,97283.13
2023-04-15T03:45:01.934Z,97281.97
2023-04-15T03:46:03.760Z,97281.97
2023-04-15T03:47:05.350Z,97277.84
2023-04-15T03:48:17.072Z,97275.59
2023-04-15T03:49:19.965Z,97276.34
2023-04-15T03:50:22.189Z,97269.25
2023-04-15T03:51:23.670Z,97272.97
2023-04-15T03:52:25.730Z,97276.34
2023-04-15T03:53:27.180Z,97272.22
2023-04-15T03:54:28.633Z,97284.22
2023-04-15T03:55:30.867Z,97280.50
2023-04-15T03:56:32.346Z,97280.88
2023-04-15T03:57:38.088Z,97286.09
2023-04-15T03:58:39.593Z,97274.13
2023-04-15T03:59:41.119Z,97271.09
2023-04-15T04:00:42.641Z,97280.50
2023-04-15T04:01:44.159Z,97268.09
2023-04-15T04:02:46.230Z,97276.69
2023-04-15T04:03:48.037Z,97278.22
2023-04-15T04:04:49.720Z,97274.47
2023-04-15T04:05:51.678Z,97280.06
2023-04-15T04:06:53.127Z,97277.84
2023-04-15T04:08:00.653Z,97279.75
2023-04-15T04:09:02.901Z,97283.88
2023-04-15T04:10:05.253Z,97282.41
2023-04-15T04:11:07.123Z,97288.41
2023-04-15T04:12:09.031Z,97286.94
2023-04-15T04:13:10.721Z,97289.94
2023-04-15T04:14:12.292Z,97290.28
2023-04-15T04:15:13.894Z,97286.13
2023-04-15T04:16:15.756Z,97289.13
2023-04-15T04:17:17.444Z,97285.75
2023-04-15T04:18:19.024Z,97290.66
2023-04-15T04:19:20.870Z,97291.00
2023-04-15T04:20:22.504Z,97289.88
2023-04-15T04:21:24.170Z,97291.03
2023-04-15T04:22:25.721Z,97292.91
2023-04-15T04:23:27.350Z,97292.09
2023-04-15T04:24:28.843Z,97288.72
2023-04-15T04:25:30.345Z,97292.84
2023-04-15T04:26:32.159Z,97299.97
2023-04-15T04:27:33.632Z,97291.34
2023-04-15T04:28:36.413Z,97291.72
2023-04-15T04:29:37.862Z,97289.13
2023-04-15T04:30:40.312Z,97298.53
2023-04-15T04:31:41.933Z,97293.28
2023-04-15T04:32:43.547Z,97291.78
2023-04-15T04:33:45.337Z,97298.91
2023-04-15T04:34:47.299Z,97294.38
2023-04-15T04:35:49.191Z,97297.41
2023-04-15T04:36:50.719Z,97297.41
2023-04-15T04:37:52.470Z,97298.16
2023-04-15T04:38:54.002Z,97299.66
2023-04-15T04:39:55.583Z,97298.91
2023-04-15T04:40:57.468Z,97304.19
2023-04-15T04:41:58.966Z,97299.34
2023-04-15T04:43:00.563Z,97294.44
2023-04-15T04:44:02.506Z,97299.34
2023-04-15T04:45:04.338Z,97298.63
2023-04-15T04:46:06.149Z,97300.09
2023-04-15T04:47:07.826Z,97301.66
2023-04-15T04:48:10.569Z,97307.66
2023-04-15T04:49:12.088Z,97300.91
2023-04-15T04:50:13.644Z,97303.16
2023-04-15T04:51:16.318Z,97295.66
2023-04-15T04:52:17.824Z,97296.75
2023-04-15T04:53:19.410Z,97294.84
2023-04-15T04:54:21.363Z,97305.00
2023-04-15T04:55:22.859Z,97292.97
2023-04-15T04:56:24.721Z,97301.63
2023-04-15T04:57:26.528Z,97300.13
2023-04-15T04:58:28.039Z,97298.66
2023-04-15T04:59:29.634Z,97301.28
2023-04-15T05:00:31.587Z,97291.91
2023-04-15T05:01:33.709Z,97303.88
2023-04-15T05:02:36.102Z,97297.88
2023-04-15T05:03:38.335Z,97298.66
2023-04-15T05:04:39.938Z,97295.28
2023-04-15T05:05:41.649Z,97297.50
2023-04-15T05:06:43.209Z,97295.94
2023-04-15T05:07:44.746Z,97298.56
2023-04-15T05:08:47.150Z,97300.09
2023-04-15T05:09:48.653Z,97299.00
2023-04-15T05:10:50.495Z,97305.00
2023-04-15T05:11:52.024Z,97296.41
2023-04-15T05:12:53.599Z,97296.03
2023-04-15T05:13:55.433Z,97294.16
2023-04-15T05:14:57.066Z,97300.13
2023-04-15T05:15:58.986Z,97299.78
2023-04-15T05:17:00.539Z,97297.91
2023-04-15T05:18:02.283Z,97300.16
2023-04-15T05:19:04.032Z,97297.16
2023-04-15T05:20:06.124Z,97298.69
2023-04-15T05:21:08.098Z,97297.94
2023-04-15T05:22:09.629Z,97299.78
2023-04-15T05:23:11.264Z,97302.81
2023-04-15T05:24:12.818Z,97300.25
2023-04-15T05:25:14.375Z,97307.00
2023-04-15T05:26:16.312Z,97307.38
2023-04-15T05:27:19.102Z,97301.00
2023-04-15T05:28:21.245Z,97302.13
2023-04-15T05:29:22.759Z,97297.59
2023-04-15T05:30:24.609Z,97301.03
2023-04-15T05:31:26.727Z,97305.91
2023-04-15T05:32:28.294Z,97303.66
2023-04-15T05:33:29.805Z,97296.16
2023-04-15T05:34:31.523Z,97304.41
2023-04-15T05:35:33.405Z,97306.28
2023-04-15T05:36:34.918Z,97300.69
2023-04-15T05:37:36.435Z,97306.31
2023-04-15T05:38:38.481Z,97307.06
2023-04-15T05:39:40.077Z,97306.78
2023-04-15T05:40:41.677Z,97309.81
2023-04-15T05:41:43.191Z,97308.66
2023-04-15T05:42:44.689Z,97309.06
2023-04-15T05:43:46.504Z,97311.69
2023-04-15T05:44:48.537Z,97308.31
2023-04-15T05:45:50.161Z,97313.16
2023-04-15T05:46:51.994Z,97314.66
2023-04-15T05:47:54.465Z,97314.31
2023-04-15T05:48:56.580Z,97315.81
2023-04-15T05:49:59.255Z,97313.59
2023-04-15T05:51:01.304Z,97316.97
2023-04-15T05:52:03.205Z,97313.97
2023-04-15T05:53:04.731Z,97317.34
2023-04-15T05:54:06.876Z,97318.09
2023-04-15T05:55:09.032Z,97321.50
2023-04-15T05:56:10.641Z,97318.53
2023-04-15T05:57:12.117Z,97321.91
2023-04-15T05:58:13.578Z,97325.66
2023-04-15T05:59:15.123Z,97318.16
2023-04-15T06:00:17.092Z,97317.03
2023-04-15T06:01:18.594Z,97319.25
2023-04-15T06:02:20.455Z,97319.22
2023-04-15T06:03:23.092Z,97320.00
2023-04-15T06:04:24.847Z,97320.44
2023-04-15T06:05:26.401Z,97315.19
2023-04-15T06:06:27.869Z,97322.72
2023-04-15T06:07:29.337Z,97325.41
2023-04-15T06:08:30.894Z,97320.88
2023-04-15T06:09:32.301Z,97315.63
2023-04-15T06:10:36.980Z,97322.03
2023-04-15T06:11:38.506Z,97326.59
2023-04-15T06:12:40.075Z,97317.56
2023-04-15T06:13:41.540Z,97325.84
2023-04-15T06:14:43.362Z,97331.09
2023-04-15T06:15:45.118Z,97325.13
2023-04-15T06:16:47.034Z,97319.84
2023-04-15T06:17:48.625Z,97331.50
2023-04-15T06:18:50.081Z,97327.03
2023-04-15T06:19:55.888Z,97327.44
2023-04-15T06:20:57.588Z,97323.69
2023-04-15T06:23:01.147Z,97325.56
2023-04-15T06:24:02.801Z,97328.19
2023-04-15T06:25:04.844Z,97321.81
2023-04-15T06:26:06.316Z,97328.19
2023-04-15T06:27:08.059Z,97329.66
2023-04-15T06:28:09.485Z,97325.50
2023-04-15T06:29:10.999Z,97332.59
2023-04-15T06:30:13.825Z,97329.13
2023-04-15T06:31:15.479Z,97336.25
2023-04-15T06:32:16.955Z,97333.16
2023-04-15T06:33:18.469Z,97329.81
2023-04-15T06:34:20.084Z,97331.78
2023-04-15T06:35:22.505Z,97334.47
2023-04-15T06:36:24.001Z,97336.38
2023-04-15T06:37:25.505Z,97333.44
2023-04-15T06:38:27.026Z,97330.09
2023-04-15T06:39:28.638Z,97333.84
2023-04-15T06:40:30.259Z,97337.22
2023-04-15T06:41:31.830Z,97333.88
2023-04-15T06:42:34.107Z,97336.53
2023-04-15T06:43:35.594Z,97336.16
2023-04-15T06:44:37.282Z,97334.31
2023-04-15T06:45:38.840Z,97333.97
2023-04-15T06:46:40.671Z,97329.13
2023-04-15T06:47:43.649Z,97337.41
2023-04-15T06:48:45.306Z,97334.41
2023-04-15T06:49:46.827Z,97334.81
2023-04-15T06:50:50.200Z,97330.66
2023-04-15T06:51:51.670Z,97334.41
2023-04-15T06:52:54.811Z,97336.69
2023-04-15T06:53:56.928Z,97340.44
2023-04-15T06:54:59.667Z,97340.41
2023-04-15T06:56:01.677Z,97338.56
2023-04-15T06:57:03.410Z,97343.06
2023-04-15T06:58:04.922Z,97340.09
2023-04-15T06:59:06.700Z,97342.72
2023-04-15T07:00:11.455Z,97340.47
2023-04-15T07:01:14.375Z,97334.81
2023-04-15T07:02:15.857Z,97338.97
2023-04-15T07:03:17.881Z,97340.50
2023-04-15T07:04:19.526Z,97338.97
2023-04-15T07:05:21.320Z,97338.56
2023-04-15T07:06:22.752Z,97338.59
2023-04-15T07:07:24.238Z,97338.59
2023-04-15T07:08:25.755Z,97334.06
2023-04-15T07:09:27.355Z,97337.06
2023-04-15T07:10:29.318Z,97345.00
2023-04-15T07:11:31.074Z,97340.50
2023-04-15T07:12:32.710Z,97337.09
2023-04-15T07:13:34.388Z,97339.72
2023-04-15T07:14:36.528Z,97333.31
2023-04-15T07:15:38.301Z,97331.81
2023-04-15T07:16:39.839Z,97338.97
2023-04-15T07:17:43.336Z,97343.13
2023-04-15T07:18:44.964Z,97344.66
2023-04-15T07:19:46.465Z,97342.00
2023-04-15T07:20:48.842Z,97346.91
2023-04-15T07:21:50.474Z,97346.16
2023-04-15T07:22:52.024Z,97346.88
2023-04-15T07:23:53.603Z,97343.13
2023-04-15T07:24:55.021Z,97344.28
2023-04-15T07:25:57.765Z,97351.78
2023-04-15T07:27:01.112Z,97345.75
2023-04-15T07:28:03.476Z,97344.63
2023-04-15T07:29:05.015Z,97350.63
2023-04-15T07:30:07.499Z,97353.28
2023-04-15T07:31:09.083Z,97353.66
2023-04-15T07:32:10.890Z,97352.19
2023-04-15T07:33:12.621Z,97352.22
2023-04-15T07:34:14.115Z,97348.78
2023-04-15T07:35:16.120Z,97347.66
2023-04-15T07:36:17.598Z,97347.69
2023-04-15T07:37:19.247Z,97345.06
2023-04-15T07:38:20.702Z,97347.28
2023-04-15T07:39:22.698Z,97348.81
2023-04-15T07:40:24.322Z,97350.72
2023-04-15T07:41:26.614Z,97351.47
2023-04-15T07:42:29.309Z,97350.34
2023-04-15T07:43:30.861Z,97352.97
2023-04-15T07:44:32.477Z,97354.84
2023-04-15T07:45:34.452Z,97354.81
2023-04-15T07:46:37.304Z,97351.09
2023-04-15T07:47:39.057Z,97358.22
2023-04-15T07:48:40.810Z,97355.97
2023-04-15T07:49:43.454Z,97353.72
2023-04-15T07:50:45.034Z,97350.34
2023-04-15T07:51:46.575Z,97354.84
2023-04-15T07:52:49.050Z,97361.25
2023-04-15T07:53:51.126Z,97354.84
2023-04-15T07:54:52.718Z,97360.13
2023-04-15T07:55:54.236Z,97354.88
2023-04-15T07:56:56.486Z,97356.34
2023-04-15T07:57:57.988Z,97356.75
2023-04-15T07:59:02.348Z,97365.78
2023-04-15T08:00:06.157Z,97362.44
2023-04-15T08:01:07.877Z,97362.84
2023-04-15T08:02:11.713Z,97364.69
2023-04-15T08:03:13.549Z,97360.22
2023-04-15T08:04:15.826Z,97364.34
2023-04-15T08:05:17.505Z,97364.31
2023-04-15T08:06:19.513Z,97369.94
2023-04-15T08:07:21.464Z,97369.19
2023-04-15T08:08:22.972Z,97364.28
2023-04-15T08:09:24.984Z,97364.25
2023-04-15T08:10:26.652Z,97363.13
2023-04-15T08:11:28.201Z,97359.34
2023-04-15T08:12:29.840Z,97361.59
2023-04-15T08:13:31.569Z,97367.63
2023-04-15T08:14:40.522Z,97367.28
2023-04-15T08:15:42.203Z,97375.53
2023-04-15T08:16:43.944Z,97368.03
2023-04-15T08:17:48.612Z,97364.25
2023-04-15T08:18:52.169Z,97366.47
2023-04-15T08:19:54.057Z,97364.97
2023-04-15T08:20:55.594Z,97369.47
2023-04-15T08:22:00.693Z,97373.19
2023-04-15T08:23:10.538Z,97373.19
2023-04-15T08:25:15.692Z,97372.41
2023-04-15T08:26:39.404Z,97366.41
2023-04-15T08:27:52.160Z,97372.06
2023-04-15T08:29:04.537Z,97372.03
2023-04-15T08:30:06.934Z,97374.69
2023-04-15T08:31:09.651Z,97377.69
2023-04-15T08:32:11.323Z,97373.94
2023-04-15T08:33:13.191Z,97374.66
2023-04-15T08:34:23.260Z,97378.78
2023-04-15T08:35:24.938Z,97377.25
2023-04-15T08:36:27.174Z,97375.75
2023-04-15T08:39:11.475Z,97375.41
2023-04-15T08:40:29.179Z,97376.53
2023-04-15T08:42:20.806Z,97378.38
2023-04-15T08:44:10.301Z,97381.75
2023-04-15T08:45:36.747Z,97383.66
2023-04-15T08:46:39.694Z,97380.97
2023-04-15T08:48:07.467Z,97387.69
2023-04-15T08:51:36.213Z,97372.97
2023-04-15T08:52:41.101Z,97377.50
2023-04-15T08:54:00.726Z,97387.66
2023-04-15T08:55:04.097Z,97383.13
2023-04-15T08:56:10.228Z,97389.91
2023-04-15T08:57:12.750Z,97392.84
2023-04-15T08:58:14.608Z,97393.97
2023-04-15T08:59:19.008Z,97399.63
2023-04-15T09:00:38.010Z,97394.72
2023-04-15T09:01:40.935Z,97396.16
2023-04-15T09:09:53.130Z,97397.28
2023-04-15T09:10:55.317Z,97394.69
2023-04-15T09:11:58.709Z,97390.97
2023-04-15T09:13:02.180Z,97392.84
2023-04-15T09:14:03.767Z,97391.38
2023-04-15T09:15:06.003Z,97401.94
2023-04-15T09:16:08.486Z,97394.78
2023-04-15T09:17:10.952Z,97395.13
2023-04-15T09:18:15.179Z,97392.50
2023-04-15T09:19:24.058Z,97400.75
2023-04-15T09:20:25.655Z,97394.72
2023-04-15T09:21:27.745Z,97394.31
2023-04-15T09:22:32.558Z,97395.09
2023-04-15T09:23:37.549Z,97394.72
2023-04-15T09:24:41.044Z,97398.09
2023-04-15T09:25:42.694Z,97393.25
2023-04-15T09:26:44.148Z,97398.53
2023-04-15T09:27:52.915Z,97399.31
2023-04-15T09:29:04.067Z,97395.97
2023-04-15T09:30:08.960Z,97404.63
2023-04-15T09:44:59.440Z,97419.31
2023-04-15T09:47:16.857Z,97419.72
2023-04-15T09:48:42.532Z,97422.78
2023-04-15T09:51:18.944Z,97425.41
2023-04-15T09:52:21.698Z,97426.50
2023-04-15T09:53:26.797Z,97426.09
2023-04-15T09:54:41.685Z,97429.13
2023-04-15T09:56:02.903Z,97427.25
2023-04-15T09:57:10.834Z,97426.06
2023-04-15T09:58:26.669Z,97428.38
2023-04-15T09:59:28.326Z,97428.72
2023-04-15T10:00:31.116Z,97427.25
2023-04-15T10:01:33.461Z,97428.41
2023-04-15T10:02:39.914Z,97433.69
2023-04-15T10:17:16.692Z,97442.16
2023-04-15T10:18:22.848Z,97436.88
2023-04-15T10:20:24.022Z,97434.63
2023-04-15T10:41:55.365Z,97432.03
2023-04-15T10:50:56.561Z,97425.16
2023-04-15T10:53:02.068Z,97420.69
2023-04-15T10:59:17.961Z,97430.78
2023-04-15T11:00:21.099Z,97431.56
2023-04-15T11:02:02.348Z,97431.59
2023-04-15T11:03:24.002Z,97438.34
2023-04-15T11:05:11.404Z,97441.75
2023-04-15T11:06:26.434Z,97445.50
2023-04-15T11:07:35.887Z,97444.38
2023-04-15T11:08:55.562Z,97435.38
2023-04-15T11:11:19.712Z,97441.38
2023-04-15T11:12:21.974Z,97437.25
2023-04-15T11:13:27.118Z,97438.38
2023-04-15T11:14:28.682Z,97447.44
2023-04-15T11:15:38.880Z,97443.31
2023-04-15T11:16:45.053Z,97444.78
2023-04-15T11:17:47.080Z,97444.78
2023-04-15T11:18:56.067Z,97443.28
2023-04-15T11:19:58.486Z,97456.41
2023-04-15T11:21:03.533Z,97448.91
2023-04-15T11:22:35.060Z,97456.03
2023-04-15T11:23:43.399Z,97448.94
2023-04-15T11:24:50.723Z,97447.47
2023-04-15T11:25:52.275Z,97452.00
2023-04-15T11:27:01.940Z,97459.88
2023-04-15T11:28:07.741Z,97453.13
2023-04-15T11:29:17.843Z,97452.03
2023-04-15T11:30:24.515Z,97462.94
2023-04-15T11:31:28.677Z,97455.03
2023-04-15T11:32:30.435Z,97460.31
2023-04-15T11:33:31.974Z,97458.00
2023-04-15T11:34:35.587Z,97454.66
2023-04-15T11:35:37.855Z,97463.69
2023-04-15T11:36:43.461Z,97453.91
2023-04-15T11:37:46.881Z,97455.78
2023-04-15T11:38:48.446Z,97455.09
2023-04-15T11:39:50.022Z,97460.00
2023-04-15T11:40:52.518Z,97461.53
2023-04-15T11:41:54.075Z,97461.53
2023-04-15T11:43:11.593Z,97464.19
2023-04-15T11:44:19.039Z,97461.91
2023-04-15T11:45:20.762Z,97460.78
2023-04-15T11:46:29.589Z,97465.66
2023-04-15T11:47:31.113Z,97470.19
2023-04-15T11:48:34.939Z,97461.50
2023-04-15T11:49:41.635Z,97461.88
2023-04-15T11:50:43.191Z,97461.09
2023-04-15T11:51:45.146Z,97462.97
2023-04-15T11:52:57.037Z,97463.72
2023-04-15T11:53:58.671Z,97460.72
2023-04-15T11:55:08.249Z,97473.50
2023-04-15T11:56:11.658Z,97466.34
2023-04-15T11:57:13.994Z,97462.59
2023-04-15T11:58:28.037Z,97464.13
2023-04-15T11:59:45.215Z,97467.09
2023-04-15T12:00:57.603Z,97467.09
2023-04-15T12:02:12.852Z,97470.91
2023-04-15T12:03:19.614Z,97469.41
2023-04-15T12:04:25.388Z,97463.41
2023-04-15T12:05:27.725Z,97478.50
2023-04-15T12:06:37.366Z,97466.47
2023-04-15T12:07:58.555Z,97471.75
2023-04-15T12:09:06.264Z,97473.28
2023-04-15T12:10:11.061Z,97477.09
2023-04-15T12:11:12.530Z,97475.22
2023-04-15T12:12:14.167Z,97473.72
2023-04-15T12:13:16.382Z,97480.84
2023-04-15T12:14:28.806Z,97476.34
2023-04-15T12:15:32.356Z,97480.44
2023-04-15T12:16:48.377Z,97481.16
2023-04-15T12:17:55.219Z,97477.75
2023-04-15T12:19:00.075Z,97483.75
2023-04-15T12:20:01.748Z,97485.63
2023-04-15T12:21:13.181Z,97486.72
2023-04-15T12:22:17.088Z,97483.66
2023-04-15T12:23:21.303Z,97491.94
2023-04-15T12:24:23.576Z,97484.78
2023-04-15T12:25:34.899Z,97493.81
2023-04-15T12:26:43.361Z,97487.06
2023-04-15T12:27:52.056Z,97492.75
2023-04-15T12:29:02.481Z,97495.38
2023-04-15T12:30:08.075Z,97489.75
2023-04-15T12:31:11.151Z,97501.06
2023-04-15T12:32:13.806Z,97500.28
2023-04-15T12:33:15.366Z,97500.31
2023-04-15T12:34:17.634Z,97499.97
2023-04-15T12:35:21.566Z,97508.63
2023-04-15T12:36:23.740Z,97502.63
2023-04-15T12:37:26.136Z,97499.59
2023-04-15T12:38:27.975Z,97504.16
2023-04-15T12:39:32.819Z,97504.56
2023-04-15T12:40:34.355Z,97506.09
2023-04-15T12:41:35.966Z,97504.63
2023-04-15T12:42:37.955Z,97504.63
2023-04-15T12:43:39.511Z,97506.50
2023-04-15T12:44:41.895Z,97505.38
2023-04-15T12:45:43.378Z,97509.88
2023-04-15T12:46:46.206Z,97508.00
2023-04-15T12:47:47.757Z,97508.34
2023-04-15T12:48:51.252Z,97511.00
2023-04-15T12:49:52.998Z,97510.25
2023-04-15T12:50:54.674Z,97514.00
2023-04-15T12:52:00.073Z,97514.00
2023-04-15T12:53:01.853Z,97512.88
2023-04-15T12:54:04.081Z,97515.47
2023-04-15T12:55:07.730Z,97514.72
2023-04-15T12:56:09.514Z,97514.00
2023-04-15T12:57:11.308Z,97525.66
2023-04-15T12:58:20.102Z,97521.91
2023-04-15T13:02:34.281Z,97526.06
2023-04-15T13:03:36.926Z,97529.88
2023-04-15T13:04:51.720Z,97527.22
2023-04-15T13:05:54.402Z,97520.84
2023-04-15T13:07:00.316Z,97528.38
2023-04-15T13:08:03.260Z,97520.84
2023-04-15T13:09:18.447Z,97530.28
2023-04-15T13:18:46.859Z,97525.81
2023-04-15T13:28:54.105Z,97547.22
2023-04-15T13:38:32.229Z,97555.75
2023-04-15T13:40:02.484Z,97563.25
2023-04-15T13:41:25.030Z,97562.13
2023-04-15T13:43:01.715Z,97565.53
2023-04-15T13:51:19.576Z,97570.78
2023-04-15T13:52:21.132Z,97574.53
2023-04-15T13:53:33.874Z,97569.25
2023-04-15T13:54:39.658Z,97574.53
2023-04-15T13:55:42.715Z,97580.94
2023-04-15T13:56:44.584Z,97576.38
2023-04-15T13:57:46.766Z,97575.22
2023-04-15T13:59:00.437Z,97576.00
2023-04-15T14:00:04.653Z,97575.19
2023-04-15T14:01:07.467Z,97578.94
2023-04-15T14:02:09.160Z,97575.56
2023-04-15T14:03:11.146Z,97576.34
2023-04-15T14:04:13.956Z,97573.75
2023-04-15T14:05:15.915Z,97577.50
2023-04-15T14:06:17.753Z,97582.03
2023-04-15T14:07:22.156Z,97582.75
2023-04-15T14:08:25.451Z,97581.25
2023-04-15T14:09:28.159Z,97587.66
2023-04-15T14:10:29.989Z,97589.56
2023-04-15T14:11:32.012Z,97595.22
2023-04-15T14:12:33.945Z,97595.59
2023-04-15T14:13:36.901Z,97593.31
2023-04-15T14:14:38.494Z,97593.31
2023-04-15T14:15:42.152Z,97598.56
2023-04-15T14:16:44.073Z,97601.56
2023-04-15T14:17:46.006Z,97595.84
2023-04-15T14:18:50.869Z,97596.25
2023-04-15T14:19:59.878Z,97599.22
2023-04-15T14:21:01.612Z,97604.13
2023-04-15T14:22:06.532Z,97606.38
2023-04-15T14:23:08.725Z,97604.13